METAR stanice u blizini

 

LYBE - Beograd / Surčin, Srbija
Ažurirano: 01/03/2024 12:00
Vedro
Vedro
 Pravac vetra JI
Vetar: JI 37 km/h
Temperatura: 18°C
Tačka rose: 5°C
Vlažnost: 43%
Pritisak: 1009 hPa
Pregled: Vedro
Vidljivost: greater than 10 km
2024/03/01 11:00 LYBE 011100Z 14020KT CAVOK 18/05 Q1009 NOSIG
LYBT - Beograd / Batajnica, Srbija
Ažurirano: 01/03/2024 12:00
Vedro
Vedro
 Pravac vetra IJI
Vetar: IJI 28 km/h
Temperatura: 17°C
Tačka rose: 6°C
Vlažnost: 49%
Pritisak: 1009 hPa
Pregled: Vedro
Vidljivost: greater than 10 km
2024/03/01 11:00 LYBT 011100Z 11015KT CAVOK 17/06 Q1009 NOSIG
LYVR - Vršac, Srbija
Ažurirano: 01/03/2024 12:00
Vedro
Vedro
 Pravac vetra JJI
Vetar: JJI 43 km/h
Temperatura: 16°C
Tačka rose: 7°C
Vlažnost: 55%
Pritisak: 1010 hPa
Pregled: Vedro
Vidljivost: greater than 10 km
2024/03/01 11:00 LYVR 011100Z 15023KT CAVOK 16/07 Q1010 NOSIG
 
LYKV - Lađevci, Srbija
Ažurirano: 01/03/2024 12:00
Partly Cloudy
Partly Cloudy
 Pravac vetra JI
Vetar: JI 22 km/h
Temperatura: 16°C
Tačka rose: 7°C
Vlažnost: 55%
Pritisak: 1010 hPa
Oblaci: Partly Cloudy
Vidljivost: 10 km
Cloud details: Partly Cloudy 1097 m
Partly Cloudy 1829 m
2024/03/01 11:00 LYKV 011100Z 13012KT 9999 SCT036 SCT060 16/07 Q1010 TEMPO 13015G25KT
LYNI - Niš, Srbija
Ažurirano: 01/03/2024 12:00
Vedro
Vedro
 Pravac vetra varies
Vetar: varies 4 km/h
Temperatura: 17°C
Tačka rose: 5°C
Vlažnost: 45%
Pritisak: 1011 hPa
Pregled: Vedro
Vidljivost: greater than 10 km
2024/03/01 11:00 LYNI 011100Z VRB02KT CAVOK 17/05 Q1011 NOSIG
BKPR - Priština, Srbija
Ažurirano: 01/03/2024 12:00
Few Clouds
Few Clouds
 Pravac vetra JJI
Vetar: JJI 41 km/h
Temperatura: 13°C
Tačka rose: 7°C
Vlažnost: 67%
Pritisak: 1011 hPa
Oblaci: Few Clouds
Vidljivost: 10 km
Cloud details: Few Clouds 1067 m
2024/03/01 11:00 BKPR 011100Z 15022KT 9999 FEW035 13/07 Q1011 NOSIG
 
LHPP - Pecs / Pogany, Hungary
Ažurirano: 01/03/2024 11:45
Vedro
Vedro
 Pravac vetra IJI
Vetar: IJI 15 km/h
Temperatura: 13°C
Tačka rose: 8°C
Vlažnost: 72%
Pritisak: 1008 hPa
Pregled: Vedro
Vidljivost: greater than 10 km
2024/03/01 10:45 LHPP 011045Z AUTO 11008KT 070V140 CAVOK 13/08 Q1008
LHUD - Szeged, Hungary
Ažurirano: 04/07/2019 01:45
NOT Current
Vedro
Vedro
 Pravac vetra S
Vetar: S 7 km/h
Temperatura: 18°C
Tačka rose: 13°C
Vlažnost: 73%
Pritisak: 1019 hPa
Pregled: Vedro
Vidljivost: greater than 10 km
2019/07/03 23:45 LHUD 032345Z 35004KT CAVOK 18/13 Q1019
LRTR - Timisoara, Romania
Ažurirano: 01/03/2024 12:00
Vedro
Vedro
 Pravac vetra I
Vetar: I 20 km/h
Temperatura: 15°C
Tačka rose: 10°C
Vlažnost: 72%
Pritisak: 1010 hPa
Pregled: Vedro
Vidljivost: greater than 10 km
2024/03/01 11:00 LRTR 011100Z 10011KT CAVOK 15/10 Q1010
 
LRCV - Craiova, Romania
Ažurirano: 01/03/2024 12:00
Oblačno
Oblačno
 Pravac vetra I
Vetar: I 24 km/h
Temperatura: 8°C
Osećaj hladnoće: 4°C
Tačka rose: 6°C
Vlažnost: 87%
Pritisak: 1015 hPa
Oblaci: Oblačno
Vidljivost: 9 km
Cloud details: Oblačno 274 m
2024/03/01 11:00 LRCV 011100Z 09013KT 9000 OVC009 08/06 Q1015
LBSF - Sofia, Bulgaria
Ažurirano: 01/03/2024 12:00
Few Clouds
Few Clouds
 Pravac vetra IJI
Vetar: IJI 28 km/h
Temperatura: 10°C
Osećaj hladnoće: 7°C
Tačka rose: 4°C
Vlažnost: 67%
Pritisak: 1013 hPa
Oblaci: Few Clouds
Vidljivost: 10 km
Cloud details: Few Clouds 2347 m
2024/03/01 11:00 LBSF 011100Z 12015KT 9999 FEW077 10/04 Q1013 NOSIG
LWSK - Skoplje, Makedonija
Ažurirano: 01/03/2024 12:20
Light drizzle, Oblačno
Light drizzle, Oblačno
 Pravac vetra IJI
Vetar: IJI 19 km/h
Temperatura: 12°C
Tačka rose: 9°C
Vlažnost: 82%
Pritisak: 1012 hPa
Pregled: Light Drizzle
Oblaci: Oblačno
Vidljivost: 10 km
Cloud details: Few Clouds 396 m
Mostly Cloudy 1524 m
Oblačno 2743 m
2024/03/01 11:20 LWSK 011120Z 11010KT 9999 -DZ FEW013 BKN050 OVC090 12/09 Q1012 NOSIG
 
LYPG - Podgorica, Crna Gora
Ažurirano: 01/03/2024 12:00
Few Clouds
Few Clouds
 Pravac vetra JJI
Vetar: JJI 7 km/h
Temperatura: 16°C
Tačka rose: 8°C
Vlažnost: 59%
Pritisak: 1010 hPa
Oblaci: Few Clouds
Vidljivost: 10 km
Cloud details: Few Clouds 1006 m
2024/03/01 11:00 LYPG 011100Z 15004KT 040V200 9999 FEW033 16/08 Q1010 NOSIG
LQSA - Sarajevo, Bosna i Hercegovina
Ažurirano: 01/03/2024 12:00
Partly Cloudy
Partly Cloudy
 Pravac vetra JJI
Vetar: JJI 11 km/h
Temperatura: 15°C
Tačka rose: 1°C
Vlažnost: 39%
Pritisak: 1008 hPa
Oblaci: Partly Cloudy
Vidljivost: 10 km
Cloud details: Few Clouds 1524 m
Partly Cloudy 1829 m
2024/03/01 11:00 LQSA 011100Z 16006KT 080V220 9999 FEW050 SCT060 15/01 Q1008 NOSIG
LDOS - Osijek, Hrvatksa
Ažurirano: 01/03/2024 12:00
Vedro
Vedro
 Pravac vetra J
Vetar: J 15 km/h
Temperatura: 16°C
Tačka rose: 9°C
Vlažnost: 63%
Pritisak: 1008 hPa
Pregled: Vedro
Vidljivost: greater than 10 km
2024/03/01 11:00 LDOS 011100Z 17008KT CAVOK 16/09 Q1008